Time;durP1;ratioP1;P1;durP2;ratioP2;P2;SDS_P1;SDS_P2;PMS_P1;PMS_P2;Temp;Humidity;BMP_temperature;BMP_pressure;BME280_temperature;BME280_humidity;BME280_pressure;Samples;Min_cycle;Max_cycle;Signal;HPM_P1;HPM_P2
2021/10/07 00:00:13;;;;;;;;;13.75;11.75;;;;;14.72;52.86;102126.38;5087414;27;45307;-49
2021/10/07 00:02:38;;;;;;;;;12.75;10.25;;;;;14.70;53.09;102132.56;5086452;27;47333;-49
2021/10/07 00:05:06;;;;;;;;;13.00;9.50;;;;;14.67;52.95;102124.69;5074190;28;45344;-50
2021/10/07 00:07:31;;;;;;;;;10.75;10.00;;;;;14.65;53.17;102132.59;5093260;27;45214;-48
2021/10/07 00:09:56;;;;;;;;;14.00;12.50;;;;;14.63;53.44;102139.66;5087490;27;45239;-50
2021/10/07 00:12:22;;;;;;;;;11.00;10.00;;;;;14.62;53.35;102141.41;5098839;27;45213;-49
2021/10/07 00:14:47;;;;;;;;;15.50;11.50;;;;;14.60;53.51;102145.88;5087060;27;45166;-48
2021/10/07 00:17:12;;;;;;;;;11.00;10.25;;;;;14.56;53.70;102141.47;5099273;27;45246;-49
2021/10/07 00:19:38;;;;;;;;;12.50;10.75;;;;;14.55;53.45;102146.78;5087369;27;45237;-47
2021/10/07 00:22:04;;;;;;;;;8.75;7.00;;;;;14.50;53.38;102138.00;5086058;27;45591;-51
2021/10/07 00:24:29;;;;;;;;;13.25;13.25;;;;;14.53;53.41;102148.59;5098460;27;45434;-48
2021/10/07 00:26:55;;;;;;;;;10.75;9.75;;;;;14.49;53.51;102137.16;5086199;27;45221;-51
2021/10/07 00:34:46;;;;;;;;;13.50;12.50;;;;;14.48;53.11;102156.53;5091816;27;45343;-50
2021/10/07 00:39:57;;;;;;;;;11.25;11.25;;;;;14.45;53.73;102153.91;5074332;27;45262;-49
2021/10/07 00:42:22;;;;;;;;;11.25;10.50;;;;;14.42;53.62;102154.81;5094222;27;45260;-51
2021/10/07 00:44:48;;;;;;;;;9.75;9.75;;;;;14.41;53.54;102163.63;5077950;27;45177;-48
2021/10/07 00:47:16;;;;;;;;;11.00;11.00;;;;;14.38;53.36;102154.88;5091748;27;45278;-48
2021/10/07 00:49:41;;;;;;;;;11.00;11.00;;;;;14.36;53.83;102154.00;5101001;27;45350;-46
2021/10/07 00:52:08;;;;;;;;;9.00;9.00;;;;;14.38;53.43;102160.16;5095372;27;46298;-49
2021/10/07 00:54:35;;;;;;;;;13.25;11.00;;;;;14.37;53.94;102166.31;5096136;27;45337;-49
2021/10/07 00:57:03;;;;;;;;;12.50;11.25;;;;;14.35;53.68;102160.16;5091639;27;45419;-50
2021/10/07 00:59:28;;;;;;;;;11.75;10.00;;;;;14.34;53.93;102156.66;5084449;27;45217;-51
2021/10/07 01:01:54;;;;;;;;;11.75;11.75;;;;;14.30;53.61;102152.25;5084277;27;46192;-50
2021/10/07 01:04:20;;;;;;;;;14.00;11.00;;;;;14.29;53.46;102156.69;5101429;27;45465;-48
2021/10/07 01:06:46;;;;;;;;;11.50;11.25;;;;;14.29;53.48;102156.69;5090908;27;45448;-51
2021/10/07 01:09:11;;;;;;;;;12.75;9.00;;;;;14.27;53.46;102153.16;5088958;27;45457;-50
2021/10/07 01:11:37;;;;;;;;;10.00;10.00;;;;;14.24;54.00;102160.25;5094123;27;46212;-49
2021/10/07 01:14:03;;;;;;;;;12.75;9.00;;;;;14.21;53.87;102150.53;5095881;27;45438;-50
2021/10/07 01:16:28;;;;;;;;;11.00;10.75;;;;;14.21;53.65;102152.34;5052236;28;45246;-50
2021/10/07 01:18:54;;;;;;;;;11.50;9.25;;;;;14.22;54.06;102157.59;5065454;27;45528;-47
2021/10/07 01:21:20;;;;;;;;;13.25;12.75;;;;;14.21;53.62;102157.63;5096095;27;48218;-46
2021/10/07 01:23:47;;;;;;;;;14.75;11.00;;;;;14.20;53.97;102161.16;5099617;27;45474;-51
2021/10/07 01:26:15;;;;;;;;;11.00;9.50;;;;;14.18;53.73;102158.50;5093816;27;45306;-48
2021/10/07 01:28:43;;;;;;;;;13.00;11.00;;;;;14.17;53.94;102161.19;5077031;27;45281;-50
2021/10/07 01:31:09;;;;;;;;;9.00;8.50;;;;;14.14;54.07;102151.50;5091139;27;46292;-48
2021/10/07 01:33:35;;;;;;;;;11.50;9.50;;;;;14.12;54.17;102153.25;5088279;27;45257;-52
2021/10/07 01:36:01;;;;;;;;;11.25;11.00;;;;;14.07;53.86;102155.94;5098764;27;45311;-50
2021/10/07 01:38:27;;;;;;;;;11.75;10.25;;;;;14.05;53.87;102156.81;5070524;27;45210;-48
2021/10/07 01:40:53;;;;;;;;;12.75;10.00;;;;;14.00;54.20;102154.25;5092596;27;45332;-48
2021/10/07 01:43:19;;;;;;;;;7.25;4.50;;;;;14.00;54.17;102151.59;5079165;27;45799;-50
2021/10/07 01:45:48;;;;;;;;;11.50;8.75;;;;;13.99;53.92;102160.41;5102192;27;45226;-49
2021/10/07 01:48:14;;;;;;;;;9.25;8.25;;;;;13.95;54.28;102159.53;5088407;27;45395;-48
2021/10/07 01:50:39;;;;;;;;;11.50;9.50;;;;;13.95;53.86;102161.31;5083504;27;46391;-50
2021/10/07 01:53:05;;;;;;;;;10.50;10.50;;;;;13.93;54.08;102161.31;5093656;27;45310;-48
2021/10/07 01:55:30;;;;;;;;;9.75;9.00;;;;;13.91;54.56;102156.91;5072347;27;45323;-48
2021/10/07 01:57:56;;;;;;;;;15.25;10.50;;;;;13.90;54.16;102150.75;5101682;27;45421;-48
2021/10/07 02:00:21;;;;;;;;;9.50;9.00;;;;;13.89;54.33;102154.28;5101671;27;45772;-49
2021/10/07 02:02:47;;;;;;;;;9.75;7.50;;;;;13.88;54.67;102152.53;5088313;27;45418;-46
2021/10/07 02:05:12;;;;;;;;;12.00;7.25;;;;;13.87;54.69;102147.25;5093009;27;45326;-51
2021/10/07 02:07:38;;;;;;;;;10.50;8.50;;;;;13.85;54.11;102157.84;5076610;27;45392;-51
2021/10/07 02:10:08;;;;;;;;;11.25;9.00;;;;;13.83;54.30;102154.31;5090700;27;45289;-52
2021/10/07 02:12:34;;;;;;;;;9.00;7.00;;;;;13.81;54.14;102156.97;5087960;27;45805;-51
2021/10/07 02:14:59;;;;;;;;;15.25;9.25;;;;;13.79;54.09;102150.81;5091531;27;45382;-52
2021/10/07 02:17:25;;;;;;;;;8.00;7.00;;;;;13.78;54.05;102143.75;5095027;27;46713;-50
2021/10/07 02:19:50;;;;;;;;;9.75;9.75;;;;;13.75;54.43;102135.88;5091114;27;47005;-50
2021/10/07 02:22:15;;;;;;;;;11.00;10.00;;;;;13.73;54.43;102132.34;5081707;27;45236;-52
2021/10/07 02:24:41;;;;;;;;;9.00;7.00;;;;;13.73;54.68;102127.06;5101804;27;45245;-50
2021/10/07 02:27:06;;;;;;;;;8.50;8.00;;;;;13.72;54.74;102132.34;5087750;27;45525;-52
2021/10/07 02:29:31;;;;;;;;;10.75;8.75;;;;;13.71;54.80;102126.22;5091299;27;45313;-50
2021/10/07 02:31:57;;;;;;;;;7.00;7.00;;;;;13.69;54.64;102127.09;5094389;27;45280;-52
2021/10/07 02:34:22;;;;;;;;;13.00;8.25;;;;;13.69;54.44;102127.09;5091347;27;45338;-52
2021/10/07 02:36:47;;;;;;;;;10.25;9.50;;;;;13.68;54.99;102125.34;5095253;27;45415;-52
2021/10/07 02:39:13;;;;;;;;;10.25;9.00;;;;;13.65;54.91;102121.81;5091393;27;45364;-52
2021/10/07 02:41:38;;;;;;;;;11.00;8.00;;;;;13.64;54.73;102125.34;5087655;27;45267;-50
2021/10/07 02:44:04;;;;;;;;;9.00;9.00;;;;;13.59;54.78;102110.41;5090990;27;45269;-50
2021/10/07 02:46:29;;;;;;;;;8.75;8.75;;;;;13.66;54.85;102128.00;5094300;27;45625;-51
2021/10/07 02:48:55;;;;;;;;;8.00;8.00;;;;;13.64;54.66;102122.69;5091190;27;46133;-51
2021/10/07 02:51:20;;;;;;;;;10.00;9.75;;;;;13.64;54.88;102125.34;5099984;27;45445;-51
2021/10/07 02:53:45;;;;;;;;;8.50;7.00;;;;;13.62;54.52;102124.50;5069412;27;45402;-52
2021/10/07 02:56:11;;;;;;;;;9.25;7.25;;;;;13.60;54.88;102128.91;5088827;27;45611;-48
2021/10/07 02:58:36;;;;;;;;;7.75;7.75;;;;;13.57;54.59;102136.84;5093021;27;46101;-48
2021/10/07 03:01:03;;;;;;;;;9.25;8.00;;;;;13.56;55.11;102131.53;5093853;27;45452;-47
2021/10/07 03:03:28;;;;;;;;;9.00;7.75;;;;;13.51;55.02;102130.69;5089137;27;45403;-49
2021/10/07 03:05:54;;;;;;;;;10.00;6.00;;;;;13.50;55.14;102129.81;5087110;27;45371;-49
2021/10/07 03:08:23;;;;;;;;;6.00;6.00;;;;;13.45;55.21;102135.13;5092954;27;45294;-51
2021/10/07 03:10:49;;;;;;;;;10.00;8.50;;;;;13.41;54.66;102130.75;5093986;27;45229;-48
2021/10/07 03:13:14;;;;;;;;;9.75;9.75;;;;;13.37;55.18;102136.00;5088906;27;45222;-46
2021/10/07 03:15:40;;;;;;;;;8.50;8.00;;;;;13.33;55.11;102141.31;5086828;27;45160;-47
2021/10/07 03:18:05;;;;;;;;;11.00;9.75;;;;;13.31;54.85;102137.78;5082428;27;46268;-48
2021/10/07 03:20:30;;;;;;;;;11.00;7.00;;;;;13.30;55.22;102146.56;5100585;27;45299;-50
2021/10/07 03:22:56;;;;;;;;;9.25;7.25;;;;;13.31;55.03;102148.34;5099449;27;45182;-49
2021/10/07 03:25:21;;;;;;;;;7.75;7.25;;;;;13.30;54.95;102141.28;5098887;27;45585;-50
2021/10/07 03:27:46;;;;;;;;;9.25;8.75;;;;;13.29;54.88;102147.44;5070384;27;46372;-49
2021/10/07 03:30:12;;;;;;;;;9.25;8.00;;;;;13.30;55.41;102145.72;5086606;27;45425;-48
2021/10/07 03:32:37;;;;;;;;;8.50;7.25;;;;;13.28;55.00;102145.72;5092358;27;45230;-47
2021/10/07 03:35:04;;;;;;;;;8.00;7.00;;;;;13.27;55.02;102143.97;5092485;27;45315;-52
2021/10/07 03:37:29;;;;;;;;;9.00;7.75;;;;;13.29;54.96;102150.09;5091718;27;47087;-52
2021/10/07 03:39:55;;;;;;;;;7.50;7.50;;;;;13.29;55.21;102150.09;5075322;27;45403;-52
2021/10/07 03:42:20;;;;;;;;;8.25;8.25;;;;;13.29;55.27;102149.22;5070947;27;45351;-49
2021/10/07 03:44:45;;;;;;;;;9.75;8.75;;;;;13.27;55.05;102143.97;5086575;27;45397;-50
2021/10/07 03:47:11;;;;;;;;;7.50;6.50;;;;;13.28;55.20;102153.63;5091586;27;45404;-48
2021/10/07 03:49:36;;;;;;;;;7.25;6.00;;;;;13.28;55.25;102155.38;5095559;27;45200;-48
2021/10/07 03:52:02;;;;;;;;;9.00;8.00;;;;;13.21;55.17;102140.47;5093758;27;45219;-50
2021/10/07 03:54:28;;;;;;;;;9.50;8.75;;;;;13.28;55.27;102150.09;5093443;27;45540;-50
2021/10/07 03:56:53;;;;;;;;;10.00;7.75;;;;;13.26;55.08;102152.75;5087856;27;46217;-48
2021/10/07 03:59:18;;;;;;;;;11.25;8.00;;;;;13.28;55.04;102158.03;5100444;27;45225;-47
2021/10/07 04:01:44;;;;;;;;;9.00;7.75;;;;;13.26;55.13;102158.03;5086439;27;45303;-50
2021/10/07 04:04:09;;;;;;;;;8.25;7.00;;;;;13.25;55.15;102161.56;5086715;27;45194;-50
2021/10/07 04:06:34;;;;;;;;;9.00;6.50;;;;;13.26;55.37;102165.97;5096788;27;45323;-47
2021/10/07 04:09:00;;;;;;;;;9.50;7.00;;;;;13.21;55.48;102159.81;5097092;27;45345;-52
2021/10/07 04:11:25;;;;;;;;;9.00;7.00;;;;;13.22;55.31;102166.84;5082052;28;45328;-52
2021/10/07 04:13:51;;;;;;;;;11.00;8.50;;;;;13.22;55.51;102174.78;5096867;27;45362;-49
2021/10/07 04:16:16;;;;;;;;;12.00;10.00;;;;;13.18;55.58;102175.63;5089641;27;46303;-49
2021/10/07 04:18:43;;;;;;;;;7.50;7.50;;;;;13.16;55.28;102165.09;5055084;28;45272;-49
2021/10/07 04:21:09;;;;;;;;;8.25;6.25;;;;;13.14;55.71;102173.91;5083283;27;45423;-49
2021/10/07 04:23:34;;;;;;;;;5.00;5.00;;;;;13.11;55.72;102171.28;5095152;27;45488;-50
2021/10/07 04:25:59;;;;;;;;;7.00;7.00;;;;;13.08;55.74;102171.28;5089906;27;46146;-51
2021/10/07 04:28:25;;;;;;;;;7.75;7.25;;;;;13.07;55.76;102172.16;5089845;27;45383;-51
2021/10/07 04:30:50;;;;;;;;;8.75;7.75;;;;;13.06;55.77;102167.78;5089818;27;45430;-49
2021/10/07 04:33:16;;;;;;;;;10.50;7.25;;;;;13.01;55.57;102159.84;5089605;27;45325;-51
2021/10/07 04:35:41;;;;;;;;;11.25;8.75;;;;;13.01;55.82;102165.13;5099915;27;45387;-49
2021/10/07 04:38:08;;;;;;;;;9.75;8.50;;;;;13.04;55.55;102170.38;5089828;27;45256;-50
2021/10/07 04:40:34;;;;;;;;;8.50;8.00;;;;;13.06;55.41;102178.34;5089868;27;45357;-50
2021/10/07 04:43:00;;;;;;;;;9.25;8.00;;;;;13.04;55.76;102167.75;5089366;27;45219;-52
2021/10/07 04:45:25;;;;;;;;;7.00;6.00;;;;;13.02;55.69;102172.19;5096065;27;45363;-48
2021/10/07 04:47:51;;;;;;;;;10.50;9.00;;;;;13.06;55.45;102176.56;5096540;27;45239;-51
2021/10/07 04:50:17;;;;;;;;;11.25;6.00;;;;;13.06;55.79;102178.34;5102002;27;45448;-53
2021/10/07 04:52:42;;;;;;;;;10.00;9.00;;;;;13.04;55.64;102180.94;5090692;27;45402;-49
2021/10/07 04:55:08;;;;;;;;;8.75;6.25;;;;;13.01;55.64;102181.84;5096131;27;45437;-49
2021/10/07 04:57:34;;;;;;;;;7.00;6.50;;;;;13.01;55.61;102179.19;5096592;27;45465;-51
2021/10/07 05:00:00;;;;;;;;;9.00;6.75;;;;;12.99;55.69;102173.06;5088953;27;45469;-50
2021/10/07 05:02:25;;;;;;;;;8.75;7.00;;;;;12.96;55.85;102175.69;5090217;27;45430;-49
2021/10/07 05:04:50;;;;;;;;;9.00;7.00;;;;;12.97;55.84;102180.09;5095908;27;45390;-47
2021/10/07 05:07:16;;;;;;;;;8.25;8.25;;;;;12.96;55.95;102177.47;5077051;27;45382;-49
2021/10/07 05:09:41;;;;;;;;;63.00;48.25;;;;;12.93;55.59;102180.09;5089095;27;45455;-49
2021/10/07 05:12:07;;;;;;;;;32.00;29.00;;;;;12.91;55.90;102184.50;5084263;27;46214;-48
2021/10/07 05:14:32;;;;;;;;;9.50;8.75;;;;;12.90;55.84;102182.75;5096118;27;46325;-53
2021/10/07 05:16:58;;;;;;;;;8.50;7.25;;;;;12.88;56.02;102187.13;5094490;27;45410;-51
2021/10/07 05:19:23;;;;;;;;;11.50;9.25;;;;;12.86;55.86;102187.13;5089135;27;45648;-50
2021/10/07 05:21:49;;;;;;;;;9.00;8.25;;;;;12.81;55.80;102186.25;5089588;27;45198;-48
2021/10/07 05:24:14;;;;;;;;;10.75;9.75;;;;;12.82;55.68;102195.94;5100265;27;45228;-47
2021/10/07 05:26:40;;;;;;;;;12.00;8.25;;;;;12.79;56.30;102191.53;5089270;27;45336;-50
2021/10/07 05:29:05;;;;;;;;;7.25;7.00;;;;;12.79;55.93;102193.28;5095685;27;45339;-51
2021/10/07 05:31:31;;;;;;;;;10.25;10.25;;;;;12.78;55.96;102204.72;5094791;27;45216;-50
2021/10/07 05:33:56;;;;;;;;;11.75;9.75;;;;;12.75;56.04;102210.88;5088513;27;45933;-50
2021/10/07 05:36:22;;;;;;;;;7.25;7.00;;;;;12.74;56.17;102202.97;5080511;28;45458;-50
2021/10/07 05:38:47;;;;;;;;;9.50;7.25;;;;;12.73;56.17;102209.09;5083767;27;45319;-51
2021/10/07 05:41:12;;;;;;;;;11.00;10.75;;;;;12.71;56.19;102209.13;5093878;27;45864;-48
2021/10/07 05:43:38;;;;;;;;;8.50;8.50;;;;;12.70;56.27;102206.47;5088223;27;45289;-52
2021/10/07 05:46:03;;;;;;;;;10.00;9.00;;;;;12.68;56.25;102204.72;5088616;27;45427;-50
2021/10/07 05:48:28;;;;;;;;;10.75;10.75;;;;;12.67;56.38;102208.22;5099571;27;45313;-51
2021/10/07 05:50:54;;;;;;;;;15.25;11.00;;;;;12.66;56.18;102203.84;5102063;27;45287;-55
2021/10/07 05:53:20;;;;;;;;;14.00;11.75;;;;;12.65;56.23;102210.00;5101735;27;46086;-54
2021/10/07 05:55:45;;;;;;;;;17.00;11.25;;;;;12.64;56.29;102210.88;5090833;27;45274;-52
2021/10/07 05:58:11;;;;;;;;;12.50;11.50;;;;;12.62;56.30;102206.50;5096170;27;45326;-51
2021/10/07 06:00:36;;;;;;;;;15.00;13.00;;;;;12.58;56.67;102200.31;5092704;27;45473;-50
2021/10/07 06:03:02;;;;;;;;;15.00;11.75;;;;;12.58;56.44;102213.50;5088115;27;45271;-53
2021/10/07 06:05:27;;;;;;;;;9.25;8.25;;;;;12.58;56.52;102217.88;5090383;27;45249;-52
2021/10/07 06:07:52;;;;;;;;;14.75;11.00;;;;;12.61;56.32;102224.06;5095127;27;45219;-49
2021/10/07 06:10:18;;;;;;;;;11.75;10.25;;;;;12.62;56.30;102217.91;5092892;27;45487;-51
2021/10/07 06:12:44;;;;;;;;;11.75;9.75;;;;;12.62;56.68;102236.38;5087787;27;45661;-53
2021/10/07 06:15:10;;;;;;;;;17.00;12.75;;;;;12.63;56.56;102226.72;5089709;27;45268;-47
2021/10/07 06:17:36;;;;;;;;;22.25;18.00;;;;;12.61;56.47;102231.97;5094975;27;45542;-56
2021/10/07 06:20:06;;;;;;;;;16.75;14.25;;;;;12.63;56.71;102237.25;5093179;27;45374;-57
2021/10/07 06:22:31;;;;;;;;;21.75;20.00;;;;;12.62;56.50;102235.50;5086127;27;46036;-57
2021/10/07 06:24:57;;;;;;;;;22.25;20.00;;;;;12.63;56.79;102237.25;5101489;27;45247;-57
2021/10/07 06:27:22;;;;;;;;;31.00;26.00;;;;;12.63;56.91;102239.91;5087505;27;45334;-52
2021/10/07 06:29:50;;;;;;;;;28.50;24.75;;;;;12.63;56.46;102240.75;5088724;27;45213;-49
2021/10/07 06:32:15;;;;;;;;;22.75;21.00;;;;;12.64;56.69;102242.53;5094472;27;45247;-54
2021/10/07 06:34:41;;;;;;;;;22.50;22.00;;;;;12.64;56.78;102241.63;5092077;27;45244;-54
2021/10/07 06:37:06;;;;;;;;;22.25;19.25;;;;;12.64;56.51;102241.63;5085871;27;45297;-53
2021/10/07 06:39:31;;;;;;;;;19.50;18.25;;;;;12.67;56.51;102239.00;5100211;27;45508;-54
2021/10/07 06:41:57;;;;;;;;;21.75;20.50;;;;;12.67;56.61;102239.88;5094345;27;46949;-50
2021/10/07 06:44:22;;;;;;;;;23.50;20.25;;;;;12.70;56.60;102240.78;5080656;27;45228;-53
2021/10/07 06:46:47;;;;;;;;;25.00;22.75;;;;;12.67;56.65;102239.88;5085560;27;45507;-55
2021/10/07 06:49:13;;;;;;;;;26.75;22.50;;;;;12.71;56.57;102234.63;5091480;27;45373;-55
2021/10/07 06:51:39;;;;;;;;;26.50;23.75;;;;;12.70;56.80;102236.38;5079099;27;48353;-53
2021/10/07 06:54:04;;;;;;;;;24.00;22.75;;;;;12.63;56.91;102227.56;5096955;27;45352;-50
2021/10/07 06:56:30;;;;;;;;;28.00;24.25;;;;;12.73;56.93;102248.69;5082433;27;45338;-52
2021/10/07 06:58:55;;;;;;;;;30.00;25.00;;;;;12.73;56.90;102249.56;5094271;27;45754;-51
2021/10/07 07:01:25;;;;;;;;;23.25;22.25;;;;;12.75;56.85;102254.84;5090306;27;46213;-54
2021/10/07 07:03:53;;;;;;;;;24.50;22.50;;;;;12.74;56.75;102253.06;5092061;27;45188;-53
2021/10/07 07:06:19;;;;;;;;;23.50;18.75;;;;;12.77;56.97;102259.25;5088785;27;45293;-55
2021/10/07 07:08:45;;;;;;;;;22.50;18.25;;;;;12.76;56.89;102259.25;5092589;27;45246;-53
2021/10/07 07:11:10;;;;;;;;;19.75;18.75;;;;;12.80;56.93;102261.00;5081764;27;47115;-53
2021/10/07 07:13:36;;;;;;;;;21.50;20.50;;;;;12.81;57.16;102257.50;5093681;27;45365;-54
2021/10/07 07:16:01;;;;;;;;;24.25;19.00;;;;;12.84;57.08;102265.38;5077287;27;45338;-52
2021/10/07 07:18:27;;;;;;;;;24.25;20.50;;;;;12.85;56.94;102264.53;5086846;27;45423;-53
2021/10/07 07:20:52;;;;;;;;;25.75;23.00;;;;;12.86;57.21;102261.00;5088894;27;46175;-52
2021/10/07 07:23:18;;;;;;;;;29.25;25.00;;;;;12.87;56.94;102251.31;5083465;27;45452;-53
2021/10/07 07:25:43;;;;;;;;;26.50;24.00;;;;;12.88;56.98;102263.63;5095991;27;45401;-52
2021/10/07 07:28:09;;;;;;;;;25.00;22.00;;;;;12.95;57.04;102268.03;5100506;27;45406;-50
2021/10/07 07:30:35;;;;;;;;;27.25;26.00;;;;;12.96;56.97;102265.41;5076776;28;47284;-54
2021/10/07 07:33:01;;;;;;;;;32.50;29.25;;;;;12.99;57.02;102269.78;5091527;27;45302;-53
2021/10/07 07:35:30;;;;;;;;;27.25;25.00;;;;;13.04;57.25;102278.59;5092094;27;45537;-53
2021/10/07 07:37:58;;;;;;;;;31.25;28.75;;;;;13.07;57.33;102270.69;5092316;27;45582;-54
2021/10/07 07:40:23;;;;;;;;;24.25;21.00;;;;;13.08;57.16;102274.19;5088146;27;46212;-50
2021/10/07 07:42:48;;;;;;;;;35.00;25.50;;;;;13.12;57.14;102271.56;5085515;27;45364;-53
2021/10/07 07:45:14;;;;;;;;;27.00;23.50;;;;;13.17;57.11;102279.50;5097977;27;45336;-52
2021/10/07 07:47:41;;;;;;;;;28.75;26.00;;;;;13.21;57.20;102280.38;5096226;27;45319;-52
2021/10/07 07:50:09;;;;;;;;;24.50;24.00;;;;;13.24;57.13;102283.88;5101503;27;46265;-52
2021/10/07 07:52:35;;;;;;;;;23.25;21.75;;;;;13.27;57.43;102283.88;5092044;27;45392;-53
2021/10/07 07:55:00;;;;;;;;;24.50;22.00;;;;;13.31;57.58;102274.19;5094931;27;45666;-54
2021/10/07 07:57:25;;;;;;;;;25.00;21.25;;;;;13.35;57.33;102272.44;5094207;27;45660;-54
2021/10/07 07:59:51;;;;;;;;;22.50;21.25;;;;;13.40;57.63;102281.25;5078882;28;45986;-53
2021/10/07 08:02:16;;;;;;;;;20.50;20.50;;;;;13.43;57.36;102276.84;5076208;27;45345;-51
2021/10/07 08:04:42;;;;;;;;;28.00;24.75;;;;;13.47;57.82;102275.06;5090039;27;45280;-52
2021/10/07 08:07:08;;;;;;;;;25.25;21.50;;;;;13.54;57.66;102276.81;5092107;27;45438;-54
2021/10/07 08:09:35;;;;;;;;;25.75;22.00;;;;;13.59;57.46;102282.97;5096502;27;46265;-54
2021/10/07 08:12:00;;;;;;;;;26.00;21.00;;;;;13.65;57.39;102279.44;5094628;27;45223;-54
2021/10/07 08:14:26;;;;;;;;;28.00;24.50;;;;;13.72;57.67;102288.22;5089248;27;45357;-52
2021/10/07 08:16:51;;;;;;;;;23.00;20.25;;;;;13.82;57.46;102288.22;5103684;27;45737;-53
2021/10/07 08:19:17;;;;;;;;;34.50;28.00;;;;;13.90;57.85;102293.47;5089493;27;46078;-54
2021/10/07 08:21:42;;;;;;;;;31.75;25.00;;;;;13.98;57.40;102289.00;5093239;27;45365;-52
2021/10/07 08:24:10;;;;;;;;;29.00;24.25;;;;;14.08;57.70;102287.22;5101697;27;45471;-53
2021/10/07 08:26:36;;;;;;;;;23.75;22.50;;;;;14.16;57.82;102295.09;5072664;28;45294;-53
2021/10/07 08:29:03;;;;;;;;;25.25;21.50;;;;;14.25;57.60;102292.44;5095966;27;46517;-54
2021/10/07 08:31:28;;;;;;;;;23.50;22.00;;;;;14.37;58.06;102293.25;5095140;27;45389;-53
2021/10/07 08:33:54;;;;;;;;;23.25;21.75;;;;;14.42;57.56;102294.13;5089202;27;45364;-53
2021/10/07 08:36:20;;;;;;;;;21.50;19.50;;;;;14.54;58.07;102291.41;5100147;27;45290;-54
2021/10/07 08:38:45;;;;;;;;;23.50;20.75;;;;;14.68;57.71;102298.38;5089500;27;46000;-54
2021/10/07 08:41:12;;;;;;;;;20.00;17.25;;;;;14.79;58.12;102293.91;5090527;27;45320;-55
2021/10/07 08:43:40;;;;;;;;;26.75;24.25;;;;;14.88;57.74;102291.19;5096077;27;45260;-52
2021/10/07 08:46:11;;;;;;;;;24.75;21.50;;;;;15.01;57.75;102297.28;5095788;27;45249;-53
2021/10/07 08:48:37;;;;;;;;;27.00;22.75;;;;;15.13;57.84;102298.91;5073317;27;47076;-50
2021/10/07 08:51:02;;;;;;;;;24.50;21.50;;;;;15.25;58.21;102295.31;5102741;27;45440;-52
2021/10/07 08:53:28;;;;;;;;;22.00;20.25;;;;;15.39;57.69;102297.81;5097253;27;45300;-53
2021/10/07 08:55:53;;;;;;;;;23.75;20.75;;;;;15.50;58.31;102295.94;5094482;27;45510;-53
2021/10/07 08:58:19;;;;;;;;;18.50;18.50;;;;;15.63;58.07;102295.81;5064995;28;46852;-53
2021/10/07 09:00:44;;;;;;;;;21.25;19.25;;;;;15.72;58.08;102285.13;5094530;27;45338;-53
2021/10/07 09:03:20;;;;;;;;;22.50;20.00;;;;;15.88;58.00;102289.38;5089080;27;45363;-54
2021/10/07 09:05:46;;;;;;;;;21.75;19.50;;;;;15.99;57.95;102280.44;5088737;27;45323;-53
2021/10/07 09:08:15;;;;;;;;;24.00;18.75;;;;;16.12;57.97;102286.47;5095389;27;45926;-52
2021/10/07 09:10:56;;;;;;;;;18.00;16.00;;;;;16.23;58.03;102280.09;5096464;27;45236;-53
2021/10/07 09:13:25;;;;;;;;;17.50;14.50;;;;;16.35;57.62;102275.53;5102440;27;45365;-53
2021/10/07 09:15:57;;;;;;;;;20.00;18.00;;;;;16.47;57.87;102283.31;5098775;27;45149;-53
2021/10/07 09:18:24;;;;;;;;;20.50;17.50;;;;;16.58;57.92;102280.50;5093329;27;45325;-53
2021/10/07 09:20:52;;;;;;;;;22.50;18.25;;;;;16.69;57.91;102290.94;5088787;27;45279;-51
2021/10/07 09:23:22;;;;;;;;;16.00;15.50;;;;;16.79;57.89;102289.94;5099377;27;45309;-53
2021/10/07 09:26:05;;;;;;;;;20.00;19.00;;;;;16.92;57.93;102287.97;5096333;27;45395;-52
2021/10/07 09:28:52;;;;;;;;;22.75;21.00;;;;;17.05;57.78;102291.31;5095675;27;46267;-54
2021/10/07 09:31:27;;;;;;;;;18.50;16.75;;;;;17.17;57.76;102284.94;5093005;27;45209;-54
2021/10/07 09:33:55;;;;;;;;;15.50;14.50;;;;;17.29;57.76;102276.72;5088588;27;45474;-53
2021/10/07 09:36:21;;;;;;;;;20.25;17.25;;;;;17.41;57.79;102272.06;5099668;27;45438;-54
2021/10/07 09:38:50;;;;;;;;;12.25;10.25;;;;;17.51;57.70;102271.03;5070417;27;45334;-52
2021/10/07 09:41:42;;;;;;;;;13.25;13.25;;;;;17.64;57.70;102266.34;5088298;27;45371;-54
2021/10/07 09:44:08;;;;;;;;;11.75;11.50;;;;;17.74;57.55;102264.38;5086541;27;45308;-53
2021/10/07 09:46:51;;;;;;;;;12.25;9.25;;;;;17.89;57.53;102273.84;5098883;27;45347;-53
2021/10/07 09:49:31;;;;;;;;;12.00;11.50;;;;;18.00;57.78;102274.50;5099280;27;45366;-54
2021/10/07 09:51:57;;;;;;;;;9.50;8.00;;;;;18.13;57.42;102269.81;5095861;27;45260;-53
2021/10/07 09:54:27;;;;;;;;;14.50;12.00;;;;;18.24;57.47;102265.13;5094470;27;45445;-54
2021/10/07 09:56:57;;;;;;;;;14.50;10.75;;;;;18.34;57.58;102268.47;5089664;27;45417;-53
2021/10/07 09:59:24;;;;;;;;;13.00;9.25;;;;;18.46;57.58;102278.78;5087866;27;45282;-53
2021/10/07 10:01:52;;;;;;;;;11.25;10.25;;;;;18.57;57.69;102269.72;5094161;27;45280;-54
2021/10/07 10:04:18;;;;;;;;;14.00;10.25;;;;;18.67;57.21;102274.75;5094475;27;45421;-54
2021/10/07 10:06:44;;;;;;;;;14.25;10.00;;;;;18.75;57.39;102266.59;5089627;27;45503;-49
2021/10/07 10:09:09;;;;;;;;;11.75;10.75;;;;;18.82;56.99;102260.19;5069469;27;46882;-53
2021/10/07 10:11:35;;;;;;;;;7.50;6.75;;;;;18.93;57.13;102261.75;5093497;27;45382;-54
2021/10/07 10:14:00;;;;;;;;;6.00;5.25;;;;;19.03;56.95;102262.41;5094857;27;45234;-54
2021/10/07 10:16:26;;;;;;;;;9.25;6.00;;;;;19.11;56.83;102263.94;5089547;27;45372;-54
2021/10/07 10:18:59;;;;;;;;;4.25;4.25;;;;;19.23;56.74;102260.09;5087958;27;45316;-54
2021/10/07 10:21:27;;;;;;;;;6.75;5.00;;;;;19.33;56.56;102263.38;5083110;27;45432;-53
2021/10/07 10:23:54;;;;;;;;;5.50;4.00;;;;;19.43;56.98;102262.22;5100139;27;45363;-53
2021/10/07 10:26:20;;;;;;;;;5.75;4.00;;;;;19.53;56.70;102260.16;5091481;27;45517;-54
2021/10/07 10:28:51;;;;;;;;;5.25;5.00;;;;;19.67;56.44;102261.56;5094309;27;45286;-54
2021/10/07 10:31:31;;;;;;;;;4.50;3.25;;;;;19.79;56.72;102264.75;5091586;27;45311;-53
2021/10/07 10:34:18;;;;;;;;;3.75;3.25;;;;;19.93;56.53;102255.53;5087718;27;45406;-53
2021/10/07 10:36:59;;;;;;;;;4.50;4.50;;;;;20.03;56.19;102259.66;5084753;27;45370;-54
2021/10/07 10:39:29;;;;;;;;;5.75;3.50;;;;;20.22;56.25;102254.63;5082652;27;48965;-53
2021/10/07 10:42:07;;;;;;;;;3.00;3.00;;;;;20.36;56.31;102254.19;5095384;27;45256;-53
2021/10/07 10:45:03;;;;;;;;;4.25;3.00;;;;;20.57;55.85;102266.00;5094274;27;45267;-53
2021/10/07 10:47:41;;;;;;;;;8.75;5.00;;;;;20.73;56.52;102255.72;5079592;27;45436;-54
2021/10/07 10:50:11;;;;;;;;;4.00;4.00;;;;;20.89;55.85;102256.09;5098436;27;47213;-53
2021/10/07 10:52:47;;;;;;;;;2.25;2.25;;;;;21.04;56.38;102253.81;5089389;27;45320;-51
2021/10/07 10:55:17;;;;;;;;;4.00;2.50;;;;;21.19;56.00;102253.28;5094236;27;45398;-53
2021/10/07 10:57:46;;;;;;;;;3.50;3.50;;;;;21.34;55.72;102261.69;5095097;27;45528;-50
2021/10/07 11:00:25;;;;;;;;;6.00;4.50;;;;;21.47;55.55;102265.69;5088108;27;46421;-54
2021/10/07 11:03:19;;;;;;;;;4.00;2.75;;;;;21.61;55.60;102264.31;5082609;27;45347;-53
2021/10/07 11:05:55;;;;;;;;;2.00;1.25;;;;;21.73;55.24;102254.03;5087309;27;45240;-52
2021/10/07 11:08:23;;;;;;;;;3.75;2.25;;;;;21.85;54.93;102257.22;5088979;27;45173;-54
2021/10/07 11:10:55;;;;;;;;;4.00;1.75;;;;;21.96;54.69;102262.13;5087067;27;46302;-53
2021/10/07 11:13:26;;;;;;;;;2.00;2.00;;;;;22.04;54.97;102257.38;5090910;27;45305;-53
2021/10/07 11:15:58;;;;;;;;;4.25;3.25;;;;;22.12;54.78;102255.25;5092682;27;45407;-53
2021/10/07 11:18:33;;;;;;;;;3.00;2.50;;;;;22.21;54.33;102254.00;5091857;27;45429;-53
2021/10/07 11:20:59;;;;;;;;;3.00;2.50;;;;;;;;5086914;27;45915;-53
2021/10/07 11:23:25;;;;;;;;;3.50;1.00;;;;;22.39;54.22;102250.63;5097709;27;45421;-53